Time;durP1;ratioP1;P1;durP2;ratioP2;P2;SDS_P1;SDS_P2;PMS_P1;PMS_P2;Temp;Humidity;BMP_temperature;BMP_pressure;BME280_temperature;BME280_humidity;BME280_pressure;Samples;Min_cycle;Max_cycle;Signal;HPM_P1;HPM_P2
2021/06/24 00:02:03;;;;;;;11.50;3.63;;;15.10;99.90;;;;;;5091088;28;20024;-74
2021/06/24 00:04:32;;;;;;;12.63;3.60;;;15.10;99.90;;;;;;5091725;28;20024;-74
2021/06/24 00:06:57;;;;;;;12.93;3.20;;;15.10;99.90;;;;;;5092162;28;20039;-74
2021/06/24 00:09:23;;;;;;;2.75;2.53;;;15.10;99.90;;;;;;5090887;28;20027;-74
2021/06/24 00:11:49;;;;;;;7.05;3.33;;;15.10;99.90;;;;;;5090620;28;20503;-73
2021/06/24 00:14:15;;;;;;;8.93;3.35;;;15.10;99.90;;;;;;5090207;28;20392;-74
2021/06/24 00:16:40;;;;;;;4.53;2.45;;;15.00;99.90;;;;;;5091888;28;20388;-74
2021/06/24 00:19:06;;;;;;;4.82;2.63;;;15.10;99.90;;;;;;5091836;28;20098;-74
2021/06/24 00:21:32;;;;;;;6.70;3.35;;;15.10;99.90;;;;;;5090053;28;20020;-74
2021/06/24 00:23:57;;;;;;;7.70;2.90;;;15.10;99.90;;;;;;5090683;28;20024;-74
2021/06/24 00:26:23;;;;;;;7.90;2.25;;;15.10;99.90;;;;;;5091484;28;20036;-73
2021/06/24 00:28:48;;;;;;;10.90;3.15;;;15.10;99.90;;;;;;5092131;28;20036;-73
2021/06/24 00:31:14;;;;;;;8.02;2.97;;;15.00;99.90;;;;;;5091651;28;20020;-73
2021/06/24 00:33:40;;;;;;;4.93;2.33;;;14.90;99.90;;;;;;5091988;28;20028;-73
2021/06/24 00:36:06;;;;;;;12.25;3.40;;;15.00;99.90;;;;;;5091632;28;20047;-73
2021/06/24 00:38:32;;;;;;;6.72;2.75;;;14.90;99.90;;;;;;5092808;28;20111;-73
2021/06/24 00:40:58;;;;;;;8.43;2.85;;;14.90;99.90;;;;;;5093771;28;20035;-73
2021/06/24 00:43:25;;;;;;;3.97;2.55;;;14.90;99.90;;;;;;5094751;28;20136;-73
2021/06/24 00:45:54;;;;;;;;;;;14.80;99.90;;;;;;5094619;28;20451;-73
2021/06/24 00:48:20;;;;;;;8.73;3.10;;;14.70;99.90;;;;;;5095097;28;19994;-73
2021/06/24 00:50:47;;;;;;;7.55;2.88;;;14.80;99.90;;;;;;5097269;28;20027;-73
2021/06/24 00:53:14;;;;;;;5.35;2.60;;;14.70;99.90;;;;;;5098365;28;20047;-73
2021/06/24 00:55:43;;;;;;;10.70;2.35;;;14.70;99.90;;;;;;5106382;28;20026;-73
2021/06/24 00:58:29;;;;;;;4.78;2.47;;;14.70;99.90;;;;;;5113894;28;20053;-73
2021/06/24 01:00:57;;;;;;;6.18;2.50;;;14.70;99.90;;;;;;5113833;28;20287;-74
2021/06/24 01:03:23;;;;;;;5.07;3.30;;;14.80;99.90;;;;;;5116393;28;20028;-75
2021/06/24 01:05:49;;;;;;;5.57;4.07;;;14.80;99.90;;;;;;5117236;28;20048;-74
2021/06/24 01:08:16;;;;;;;5.07;2.65;;;14.70;99.90;;;;;;5116158;28;20023;-75
2021/06/24 01:10:47;;;;;;;8.90;2.70;;;14.70;99.90;;;;;;5115862;28;20079;-74
2021/06/24 01:13:13;;;;;;;7.07;2.85;;;14.70;99.90;;;;;;5116302;28;20076;-73
2021/06/24 01:15:40;;;;;;;3.40;2.50;;;14.50;99.90;;;;;;5117436;28;20020;-74
2021/06/24 01:18:06;;;;;;;6.18;2.35;;;14.60;99.90;;;;;;5108747;28;20028;-73
2021/06/24 01:20:35;;;;;;;3.75;2.35;;;14.70;99.90;;;;;;5099737;28;20026;-74
2021/06/24 01:23:02;;;;;;;4.68;2.83;;;14.60;99.90;;;;;;5099200;28;20035;-73
2021/06/24 01:25:28;;;;;;;7.20;2.42;;;14.60;99.90;;;;;;5098089;28;20077;-75
2021/06/24 01:28:03;;;;;;;8.48;2.42;;;14.60;99.90;;;;;;5097038;28;20036;-73
2021/06/24 01:30:29;;;;;;;6.53;2.83;;;14.50;99.90;;;;;;5094807;28;20032;-73
2021/06/24 01:32:56;;;;;;;3.85;2.33;;;14.50;99.90;;;;;;5096341;28;20069;-74
2021/06/24 01:35:24;;;;;;;9.30;2.75;;;14.40;99.90;;;;;;5095363;28;20020;-74
2021/06/24 01:37:56;;;;;;;7.25;2.45;;;14.40;99.90;;;;;;5096154;28;20020;-73
2021/06/24 01:40:21;;;;;;;2.70;2.42;;;14.30;99.90;;;;;;5093453;28;20040;-73
2021/06/24 01:42:47;;;;;;;10.25;2.95;;;14.40;99.90;;;;;;5093228;28;20016;-73
2021/06/24 01:45:13;;;;;;;6.70;2.63;;;14.40;99.90;;;;;;5093501;28;20012;-73
2021/06/24 01:47:39;;;;;;;11.15;2.55;;;14.30;99.90;;;;;;5094352;28;20027;-72
2021/06/24 01:50:09;;;;;;;6.30;2.78;;;14.40;99.90;;;;;;5095423;28;20066;-74
2021/06/24 01:52:35;;;;;;;4.18;2.60;;;14.40;99.90;;;;;;5093257;28;20020;-73
2021/06/24 01:55:00;;;;;;;4.70;2.72;;;14.40;99.90;;;;;;5092815;28;20345;-73
2021/06/24 01:57:26;;;;;;;4.70;2.67;;;14.30;99.90;;;;;;5090636;28;20073;-72
2021/06/24 01:59:53;;;;;;;12.60;3.05;;;14.30;99.90;;;;;;5094941;28;20035;-74
2021/06/24 02:02:18;;;;;;;10.10;4.05;;;14.30;99.90;;;;;;5093734;28;20036;-73
2021/06/24 02:04:44;;;;;;;9.25;3.30;;;14.30;99.90;;;;;;5092564;28;20571;-73
2021/06/24 02:07:10;;;;;;;4.72;2.80;;;14.20;99.90;;;;;;5094190;28;20031;-74
2021/06/24 02:09:35;;;;;;;6.57;2.83;;;14.20;99.90;;;;;;5092879;28;20020;-75
2021/06/24 02:12:01;;;;;;;5.72;2.50;;;14.20;99.90;;;;;;5094236;28;20052;-73
2021/06/24 02:14:28;;;;;;;6.28;2.58;;;14.10;99.90;;;;;;5093831;28;20376;-74
2021/06/24 02:16:53;;;;;;;4.18;2.40;;;14.10;99.90;;;;;;5092589;28;20027;-73
2021/06/24 02:19:19;;;;;;;7.55;2.30;;;14.10;99.90;;;;;;5092166;28;20547;-74
2021/06/24 02:21:45;;;;;;;3.38;2.30;;;14.10;99.90;;;;;;5093840;28;20020;-73
2021/06/24 02:24:10;;;;;;;5.68;2.47;;;14.10;99.90;;;;;;5093552;28;20093;-73
2021/06/24 02:26:36;;;;;;;3.75;2.50;;;14.20;99.90;;;;;;5093687;28;20028;-74
2021/06/24 02:29:02;;;;;;;6.10;2.33;;;14.20;99.90;;;;;;5092213;28;20047;-73
2021/06/24 02:31:27;;;;;;;3.00;2.53;;;14.20;99.90;;;;;;5092552;28;20081;-74
2021/06/24 02:33:53;;;;;;;4.03;2.40;;;14.10;99.90;;;;;;5092367;28;20035;-73
2021/06/24 02:36:19;;;;;;;5.93;2.58;;;14.00;99.90;;;;;;5092130;28;20063;-73
2021/06/24 02:41:33;;;;;;;4.95;2.50;;;14.00;99.90;;;;;;5093045;28;20383;-73
2021/06/24 02:43:59;;;;;;;6.65;2.72;;;14.00;99.90;;;;;;5091892;28;20028;-73
2021/06/24 02:46:24;;;;;;;6.38;2.88;;;14.00;99.90;;;;;;5091859;28;20036;-74
2021/06/24 02:48:50;;;;;;;6.97;2.88;;;14.10;99.90;;;;;;5093998;28;20031;-74
2021/06/24 02:51:15;;;;;;;9.63;3.70;;;14.10;99.90;;;;;;5091996;28;20044;-73
2021/06/24 02:53:41;;;;;;;4.15;2.33;;;14.10;99.90;;;;;;5092139;28;20539;-74
2021/06/24 02:58:51;;;;;;;8.20;2.85;;;14.00;99.90;;;;;;5091671;28;20082;-74
2021/06/24 03:01:20;;;;;;;5.85;2.78;;;14.00;99.90;;;;;;5091892;28;20052;-74
2021/06/24 03:03:45;;;;;;;3.95;2.60;;;14.00;99.90;;;;;;5093539;28;20102;-73
2021/06/24 03:06:30;;;;;;;9.43;3.58;;;14.00;99.90;;;;;;5092795;28;20032;-74
2021/06/24 03:08:55;;;;;;;2.60;2.33;;;13.90;99.90;;;;;;5092563;28;20028;-73
2021/06/24 03:11:21;;;;;;;7.35;2.80;;;14.00;99.90;;;;;;5092915;28;20418;-73
2021/06/24 03:13:49;;;;;;;7.75;3.17;;;14.10;99.90;;;;;;5091515;28;20464;-74
2021/06/24 03:16:16;;;;;;;5.95;2.63;;;14.00;99.90;;;;;;5094299;28;20020;-74
2021/06/24 03:18:42;;;;;;;2.97;2.33;;;14.00;99.90;;;;;;5092621;28;20460;-74
2021/06/24 03:21:08;;;;;;;6.80;2.60;;;14.10;99.90;;;;;;5093036;28;20016;-74
2021/06/24 03:23:33;;;;;;;3.28;2.33;;;14.10;99.90;;;;;;5092180;28;20684;-73
2021/06/24 03:25:59;;;;;;;9.98;4.00;;;14.20;99.90;;;;;;5090913;28;20046;-74
2021/06/24 03:28:25;;;;;;;6.72;2.80;;;14.10;99.90;;;;;;5091408;28;20024;-75
2021/06/24 03:30:51;;;;;;;6.03;2.65;;;14.10;99.90;;;;;;5092745;28;20029;-74
2021/06/24 03:33:16;;;;;;;12.38;3.08;;;14.10;99.90;;;;;;5091503;28;20604;-74
2021/06/24 03:35:45;;;;;;;4.35;2.40;;;14.10;99.90;;;;;;5092050;28;20059;-74
2021/06/24 03:38:11;;;;;;;4.60;2.58;;;14.00;99.90;;;;;;5092475;28;20027;-74
2021/06/24 03:40:36;;;;;;;3.90;2.70;;;14.10;99.90;;;;;;5090277;28;20039;-74
2021/06/24 03:43:03;;;;;;;6.75;2.70;;;14.00;99.90;;;;;;5093099;28;20024;-74
2021/06/24 03:45:28;;;;;;;5.78;2.42;;;14.10;99.90;;;;;;5090749;28;20032;-75
2021/06/24 03:47:54;;;;;;;5.78;2.72;;;14.10;99.90;;;;;;5091327;28;20381;-73
2021/06/24 03:50:20;;;;;;;5.93;2.33;;;14.10;99.90;;;;;;5091145;28;20024;-74
2021/06/24 03:52:46;;;;;;;6.70;3.03;;;14.10;99.90;;;;;;5069787;28;20477;-73
2021/06/24 03:55:15;;;;;;;5.55;2.55;;;14.00;99.90;;;;;;5069687;28;20040;-73
2021/06/24 03:57:41;;;;;;;7.50;2.60;;;14.10;99.90;;;;;;5070338;28;20178;-73
2021/06/24 04:00:07;;;;;;;6.53;2.50;;;14.20;99.90;;;;;;5070143;28;20188;-73
2021/06/24 04:02:33;;;;;;;6.55;2.60;;;14.10;99.90;;;;;;5071890;28;20496;-74
2021/06/24 04:04:59;;;;;;;5.97;2.63;;;14.20;99.90;;;;;;5053206;28;20031;-73
2021/06/24 04:07:24;;;;;;;8.70;3.25;;;14.10;99.90;;;;;;5069651;28;20045;-73
2021/06/24 04:09:50;;;;;;;4.07;2.58;;;14.00;99.90;;;;;;5069463;28;20107;-73
2021/06/24 04:12:16;;;;;;;2.42;2.22;;;14.10;99.90;;;;;;5069440;28;20071;-73
2021/06/24 04:14:41;;;;;;;8.75;4.43;;;14.10;99.90;;;;;;5054082;28;20055;-73
2021/06/24 04:17:07;;;;;;;7.13;2.92;;;14.00;99.90;;;;;;5071137;28;20120;-74
2021/06/24 04:19:33;;;;;;;5.07;3.38;;;14.00;99.90;;;;;;5067556;28;20045;-73
2021/06/24 04:21:59;;;;;;;4.32;3.10;;;14.00;99.90;;;;;;5074006;28;20028;-73
2021/06/24 04:24:24;;;;;;;11.25;3.20;;;14.00;99.90;;;;;;5091243;28;20060;-73
2021/06/24 04:26:50;;;;;;;8.20;3.13;;;14.00;99.90;;;;;;5098271;28;20055;-74
2021/06/24 04:29:16;;;;;;;7.60;3.13;;;14.00;99.90;;;;;;5095706;28;20655;-73
2021/06/24 04:31:41;;;;;;;11.98;2.97;;;14.00;99.90;;;;;;5096895;28;20078;-74
2021/06/24 04:34:07;;;;;;;4.47;3.35;;;14.00;99.90;;;;;;5095331;28;20063;-74
2021/06/24 04:36:33;;;;;;;3.40;2.70;;;14.10;99.90;;;;;;5106751;28;20062;-74
2021/06/24 04:38:59;;;;;;;8.98;2.95;;;14.10;99.90;;;;;;5104863;28;20030;-74
2021/06/24 04:41:25;;;;;;;9.30;3.38;;;14.10;99.90;;;;;;5095614;28;20024;-74
2021/06/24 04:43:51;;;;;;;10.10;2.80;;;14.10;99.90;;;;;;5095866;28;20068;-74
2021/06/24 04:46:16;;;;;;;8.10;3.08;;;14.10;99.90;;;;;;5096802;28;20032;-74
2021/06/24 04:48:42;;;;;;;13.85;3.88;;;14.00;99.90;;;;;;5095627;28;20032;-74
2021/06/24 04:51:08;;;;;;;7.10;4.00;;;14.10;99.90;;;;;;5097920;28;20471;-74
2021/06/24 04:53:33;;;;;;;5.47;2.95;;;14.10;99.90;;;;;;5097152;28;20095;-74
2021/06/24 04:55:59;;;;;;;10.32;3.50;;;14.10;99.90;;;;;;5101652;28;20110;-74
2021/06/24 04:58:24;;;;;;;5.50;3.10;;;14.10;99.90;;;;;;5116604;28;20035;-75
2021/06/24 05:00:51;;;;;;;15.55;3.45;;;14.00;99.90;;;;;;5104922;28;20028;-74
2021/06/24 05:03:17;;;;;;;8.55;3.20;;;14.00;99.90;;;;;;5096524;28;20036;-74
2021/06/24 05:05:43;;;;;;;2.90;2.60;;;13.90;99.90;;;;;;5096444;28;20038;-74
2021/06/24 05:08:22;;;;;;;6.90;2.95;;;13.90;99.90;;;;;;5119634;28;20080;-76
2021/06/24 05:10:48;;;;;;;6.60;2.95;;;14.00;99.90;;;;;;5118498;28;20047;-75
2021/06/24 05:13:14;;;;;;;4.97;3.17;;;14.00;99.90;;;;;;5118630;27;20043;-76
2021/06/24 05:15:43;;;;;;;9.05;3.63;;;14.00;99.90;;;;;;5119522;28;20556;-76
2021/06/24 05:18:10;;;;;;;6.63;3.05;;;14.00;99.90;;;;;;5099426;28;20024;-76
2021/06/24 05:20:39;;;;;;;5.93;2.83;;;13.90;99.90;;;;;;5098750;28;20055;-75
2021/06/24 05:23:06;;;;;;;7.38;4.00;;;13.90;99.90;;;;;;5098343;28;20024;-75
2021/06/24 05:25:32;;;;;;;7.32;3.80;;;14.00;99.90;;;;;;5107401;28;20036;-74
2021/06/24 05:27:58;;;;;;;7.13;4.53;;;14.10;99.90;;;;;;5110019;28;20032;-74
2021/06/24 05:30:23;;;;;;;8.68;4.05;;;14.10;99.90;;;;;;5096658;28;20024;-74
2021/06/24 05:32:49;;;;;;;13.40;4.03;;;14.00;99.90;;;;;;5093315;28;20423;-75
2021/06/24 05:35:15;;;;;;;7.78;3.85;;;14.10;99.90;;;;;;5096518;28;20051;-74
2021/06/24 05:37:40;;;;;;;5.82;3.65;;;14.10;99.90;;;;;;5095255;28;20073;-74
2021/06/24 05:40:07;;;;;;;8.02;3.38;;;14.20;99.90;;;;;;5095476;28;20031;-75
2021/06/24 05:42:33;;;;;;;10.90;4.20;;;14.40;99.90;;;;;;5090316;28;20028;-75
2021/06/24 05:44:58;;;;;;;7.35;3.78;;;14.40;99.90;;;;;;5093873;28;20016;-75
2021/06/24 05:47:24;;;;;;;4.22;3.33;;;14.50;99.90;;;;;;5094070;28;20115;-76
2021/06/24 05:49:50;;;;;;;10.23;4.22;;;14.50;99.90;;;;;;5095419;28;20119;-74
2021/06/24 05:52:15;;;;;;;10.05;3.63;;;14.50;99.90;;;;;;5094115;28;20065;-74
2021/06/24 05:54:41;;;;;;;13.25;3.60;;;14.50;99.90;;;;;;5090954;28;20079;-74
2021/06/24 05:57:07;;;;;;;7.40;3.08;;;14.40;99.90;;;;;;5097264;28;20028;-74
2021/06/24 05:59:32;;;;;;;8.23;3.47;;;14.50;99.90;;;;;;5097303;27;20089;-74
2021/06/24 06:01:58;;;;;;;10.93;3.40;;;14.60;99.90;;;;;;5091658;28;20376;-72
2021/06/24 06:04:25;;;;;;;8.05;2.67;;;14.60;99.90;;;;;;5088440;28;20032;-74
2021/06/24 06:06:50;;;;;;;9.75;3.83;;;14.70;99.90;;;;;;5087439;28;20077;-74
2021/06/24 06:09:16;;;;;;;13.07;3.38;;;14.70;99.90;;;;;;5088586;28;20032;-73
2021/06/24 06:11:45;;;;;;;8.50;3.30;;;14.70;99.90;;;;;;5088828;28;20020;-73
2021/06/24 06:14:11;;;;;;;7.38;3.47;;;14.80;99.90;;;;;;5088843;28;20028;-73
2021/06/24 06:19:21;;;;;;;8.85;3.38;;;14.90;99.90;;;;;;5089675;28;20039;-75
2021/06/24 06:21:47;;;;;;;5.63;3.38;;;15.10;99.90;;;;;;5081557;28;20024;-74
2021/06/24 06:24:13;;;;;;;6.28;3.10;;;15.10;99.90;;;;;;5098086;28;20035;-74
2021/06/24 06:26:38;;;;;;;6.90;2.80;;;15.10;99.90;;;;;;5093364;28;20157;-74
2021/06/24 06:29:04;;;;;;;8.38;3.40;;;15.30;99.90;;;;;;5094311;28;20089;-75
2021/06/24 06:31:37;;;;;;;10.13;3.10;;;15.30;99.90;;;;;;5094255;28;20028;-75
2021/06/24 06:34:03;;;;;;;6.63;3.40;;;15.30;99.90;;;;;;5093994;28;20027;-75
2021/06/24 06:36:28;;;;;;;8.32;3.13;;;15.30;99.90;;;;;;5087755;28;20028;-75
2021/06/24 06:38:54;;;;;;;7.95;3.25;;;15.30;99.90;;;;;;5079487;28;20035;-74
2021/06/24 06:41:20;;;;;;;6.85;3.03;;;15.40;99.90;;;;;;5087521;28;20028;-74
2021/06/24 06:43:45;;;;;;;10.02;3.35;;;15.50;99.90;;;;;;5089096;28;20028;-74
2021/06/24 06:46:11;;;;;;;3.97;2.60;;;15.50;99.90;;;;;;5087568;28;20046;-74
2021/06/24 06:48:37;;;;;;;10.52;2.95;;;15.70;99.90;;;;;;5092732;28;20032;-74
2021/06/24 06:51:02;;;;;;;5.07;2.38;;;15.80;99.90;;;;;;5086849;28;20443;-74
2021/06/24 06:53:28;;;;;;;8.65;3.00;;;15.90;99.90;;;;;;5093011;28;20046;-75
2021/06/24 06:55:54;;;;;;;6.95;2.80;;;16.10;99.90;;;;;;5093907;28;20114;-73
2021/06/24 06:58:19;;;;;;;3.25;2.30;;;15.90;99.90;;;;;;5094136;28;20020;-75
2021/06/24 07:00:45;;;;;;;5.10;2.78;;;16.00;99.90;;;;;;5094099;28;20032;-75
2021/06/24 07:03:11;;;;;;;8.13;2.78;;;16.00;99.90;;;;;;5094105;28;20085;-74
2021/06/24 07:05:36;;;;;;;4.72;2.65;;;16.00;99.90;;;;;;5094095;28;20051;-74
2021/06/24 07:08:03;;;;;;;7.10;2.80;;;16.00;99.90;;;;;;5092175;28;20396;-74
2021/06/24 07:10:29;;;;;;;8.30;3.40;;;15.90;99.90;;;;;;5092811;28;20031;-74
2021/06/24 07:12:55;;;;;;;10.32;2.75;;;15.90;99.90;;;;;;5094193;28;20024;-73
2021/06/24 07:15:21;;;;;;;3.85;2.05;;;16.00;99.90;;;;;;5093614;28;20043;-73
2021/06/24 07:17:46;;;;;;;4.70;2.95;;;16.20;99.90;;;;;;5103838;28;20464;-73
2021/06/24 07:20:12;;;;;;;2.55;2.17;;;16.30;99.90;;;;;;5079895;28;20020;-74
2021/06/24 07:22:39;;;;;;;2.75;2.03;;;16.30;99.90;;;;;;5094079;28;20028;-74
2021/06/24 07:25:06;;;;;;;6.50;2.58;;;16.30;99.90;;;;;;5084872;28;20426;-74
2021/06/24 07:27:32;;;;;;;3.22;2.30;;;16.40;99.90;;;;;;5084213;28;20090;-75
2021/06/24 07:29:58;;;;;;;5.45;1.90;;;16.50;99.90;;;;;;5083496;28;20035;-74
2021/06/24 07:32:24;;;;;;;5.25;2.22;;;16.50;99.90;;;;;;5088362;28;20024;-73
2021/06/24 07:34:49;;;;;;;2.00;1.88;;;16.60;99.90;;;;;;5098763;27;20041;-74
2021/06/24 07:37:15;;;;;;;9.48;2.00;;;16.70;99.90;;;;;;5085323;28;20525;-76
2021/06/24 07:39:41;;;;;;;5.25;2.00;;;16.70;99.90;;;;;;5077826;28;20028;-74
2021/06/24 07:42:06;;;;;;;6.22;1.83;;;16.70;99.90;;;;;;5092785;28;20380;-73
2021/06/24 07:44:32;;;;;;;4.82;1.95;;;16.70;99.90;;;;;;5081387;28;20028;-74
2021/06/24 07:46:59;;;;;;;4.43;1.88;;;16.80;99.90;;;;;;5083806;28;20035;-76
2021/06/24 07:49:24;;;;;;;3.75;2.00;;;16.90;99.90;;;;;;5088719;28;20111;-78
2021/06/24 07:51:50;;;;;;;4.18;1.90;;;16.90;99.90;;;;;;5079637;28;20052;-76
2021/06/24 07:54:15;;;;;;;7.18;2.70;;;16.90;99.90;;;;;;5103699;28;20497;-78
2021/06/24 07:56:41;;;;;;;4.43;1.88;;;16.90;99.90;;;;;;5084875;28;20097;-79
2021/06/24 07:59:11;;;;;;;4.15;1.80;;;17.10;99.90;;;;;;5091747;28;20031;-82
2021/06/24 08:01:37;;;;;;;8.80;2.47;;;17.20;99.90;;;;;;5090335;28;20081;-76
2021/06/24 08:04:06;;;;;;;5.22;2.38;;;17.10;99.90;;;;;;5093694;28;20476;-76
2021/06/24 08:06:32;;;;;;;3.40;2.20;;;17.10;99.90;;;;;;5086730;28;20469;-77
2021/06/24 08:08:57;;;;;;;13.13;3.30;;;17.10;99.90;;;;;;5085028;28;20070;-78
2021/06/24 08:11:23;;;;;;;7.35;2.45;;;17.10;99.90;;;;;;5087563;28;20051;-81
2021/06/24 08:13:49;;;;;;;9.77;1.85;;;17.00;99.90;;;;;;5084851;28;20443;-81
2021/06/24 08:16:16;;;;;;;6.78;2.40;;;16.80;99.90;;;;;;5082725;28;20027;-80
2021/06/24 08:18:42;;;;;;;9.95;2.42;;;16.80;99.90;;;;;;5079607;28;20025;-76
2021/06/24 08:21:08;;;;;;;8.57;2.40;;;16.70;99.90;;;;;;5084923;28;20062;-79
2021/06/24 08:23:33;;;;;;;4.05;1.90;;;16.60;99.90;;;;;;5079977;28;20028;-81
2021/06/24 08:25:59;;;;;;;5.35;1.92;;;16.70;99.90;;;;;;5081834;28;20028;-82
2021/06/24 08:28:25;;;;;;;4.55;2.05;;;16.70;99.90;;;;;;5074811;28;20040;-77
2021/06/24 08:30:52;;;;;;;4.25;2.03;;;16.90;99.90;;;;;;5076506;28;20488;-77
2021/06/24 08:33:18;;;;;;;5.88;2.25;;;16.90;99.90;;;;;;5086435;28;20024;-77
2021/06/24 08:35:44;;;;;;;4.15;1.75;;;17.00;99.90;;;;;;5089946;28;20023;-74
2021/06/24 08:38:11;;;;;;;5.32;2.08;;;17.00;99.90;;;;;;5106801;28;20020;-76
2021/06/24 08:40:39;;;;;;;4.47;2.17;;;17.00;99.90;;;;;;5111200;28;20034;-74
2021/06/24 08:43:06;;;;;;;3.38;2.05;;;17.10;99.90;;;;;;5102818;28;20273;-73
2021/06/24 08:45:31;;;;;;;14.48;3.40;;;17.10;99.90;;;;;;5097200;28;20027;-75
2021/06/24 08:47:59;;;;;;;5.00;1.73;;;17.30;99.90;;;;;;5094562;28;20019;-76
2021/06/24 08:50:25;;;;;;;3.88;2.03;;;17.20;99.90;;;;;;5092718;28;20028;-75
2021/06/24 08:52:51;;;;;;;5.97;3.35;;;17.10;99.90;;;;;;5091570;28;20412;-74
2021/06/24 08:55:18;;;;;;;4.20;1.77;;;17.10;99.90;;;;;;5087596;28;20400;-74
2021/06/24 08:57:44;;;;;;;5.70;1.85;;;17.00;99.90;;;;;;5086102;28;20040;-75
2021/06/24 09:00:10;;;;;;;4.63;1.92;;;17.00;99.90;;;;;;5090043;28;20032;-83
2021/06/24 09:02:46;;;;;;;3.65;2.13;;;17.00;99.90;;;;;;5104843;28;20041;-79
2021/06/24 09:05:14;;;;;;;7.63;1.95;;;17.10;99.90;;;;;;5100085;28;20016;-78
2021/06/24 09:07:48;;;;;;;4.50;2.30;;;17.10;99.90;;;;;;5113723;28;20087;-80
2021/06/24 09:10:13;;;;;;;13.80;2.75;;;17.10;99.90;;;;;;5110577;28;20020;-76
2021/06/24 09:12:56;;;;;;;3.78;2.35;;;17.20;99.90;;;;;;5106509;28;20046;-78
2021/06/24 09:15:33;;;;;;;8.50;1.83;;;17.20;99.90;;;;;;5111057;28;20104;-75
2021/06/24 09:17:59;;;;;;;6.18;2.10;;;17.10;99.90;;;;;;5111641;28;19996;-75
2021/06/24 09:20:25;;;;;;;6.90;2.50;;;17.10;99.90;;;;;;5107284;28;20039;-75
2021/06/24 09:23:16;;;;;;;5.93;2.25;;;17.00;99.90;;;;;;5107050;28;20032;-77
2021/06/24 09:25:45;;;;;;;6.22;2.20;;;17.00;99.90;;;;;;5106591;28;20040;-78
2021/06/24 09:28:12;;;;;;;3.50;1.45;;;17.10;99.90;;;;;;5108114;28;20044;-76
2021/06/24 09:30:41;;;;;;;3.65;2.15;;;17.20;99.90;;;;;;5101986;28;20039;-81
2021/06/24 09:33:17;;;;;;;3.78;2.75;;;17.20;99.90;;;;;;5090203;28;20024;-74
2021/06/24 09:36:03;;;;;;;5.10;2.37;;;17.40;99.90;;;;;;5082776;28;20468;-74
2021/06/24 09:38:29;;;;;;;5.38;2.08;;;17.50;99.90;;;;;;5087165;28;20046;-75
2021/06/24 09:40:56;;;;;;;4.93;1.55;;;17.70;99.90;;;;;;5091656;28;20032;-74
2021/06/24 09:43:31;;;;;;;2.28;1.98;;;17.80;99.90;;;;;;5076831;28;20401;-74
2021/06/24 09:46:30;;;;;;;2.85;1.83;;;18.00;99.90;;;;;;5078035;28;20032;-72
2021/06/24 09:48:59;;;;;;;4.93;1.65;;;18.30;99.90;;;;;;5075658;28;20389;-72
2021/06/24 09:51:32;;;;;;;9.05;2.47;;;18.50;99.90;;;;;;5080002;28;20020;-73
2021/06/24 09:54:05;;;;;;;4.20;2.38;;;18.70;99.90;;;;;;5093192;28;20058;-73
2021/06/24 09:56:33;;;;;;;2.47;1.63;;;18.60;99.90;;;;;;5089593;28;20105;-73
2021/06/24 09:59:05;;;;;;;5.15;1.70;;;18.60;99.90;;;;;;5085254;28;20032;-74
2021/06/24 10:01:43;;;;;;;3.58;2.63;;;18.60;99.90;;;;;;5094263;28;20039;-71
2021/06/24 10:04:31;;;;;;;3.67;2.28;;;18.40;99.90;;;;;;5079256;28;20028;-72
2021/06/24 10:06:59;;;;;;;4.75;2.05;;;18.30;99.90;;;;;;5090875;28;20149;-72
2021/06/24 10:09:26;;;;;;;8.43;2.20;;;18.40;99.90;;;;;;5080310;28;20040;-72
2021/06/24 10:11:54;;;;;;;3.95;1.85;;;18.40;99.90;;;;;;5102555;28;20119;-72
2021/06/24 10:14:20;;;;;;;;;;;18.40;99.90;;;;;;5091407;28;20476;-72
2021/06/24 10:16:52;;;;;;;3.63;1.98;;;18.50;99.90;;;;;;5094395;28;19977;-73
2021/06/24 10:19:27;;;;;;;3.70;2.20;;;18.40;99.90;;;;;;5089978;28;20565;-72
2021/06/24 10:22:17;;;;;;;3.80;1.85;;;18.30;99.90;;;;;;5109198;28;20371;-73
2021/06/24 10:24:53;;;;;;;2.40;1.75;;;18.50;99.90;;;;;;5107276;28;20525;-72
2021/06/24 10:27:20;;;;;;;2.88;2.03;;;18.40;99.90;;;;;;5098224;28;20115;-72
2021/06/24 10:29:50;;;;;;;9.30;1.80;;;18.50;99.90;;;;;;5112843;28;20095;-72
2021/06/24 10:32:23;;;;;;;5.05;2.53;;;18.60;99.90;;;;;;5098458;28;20502;-71
2021/06/24 10:34:50;;;;;;;7.18;2.00;;;18.80;99.90;;;;;;5106737;28;20051;-72
2021/06/24 10:37:21;;;;;;;6.57;2.30;;;18.90;99.90;;;;;;5104534;28;20024;-73
2021/06/24 10:39:47;;;;;;;10.88;2.63;;;19.10;99.90;;;;;;5093569;28;20024;-72
2021/06/24 10:42:15;;;;;;;6.95;2.33;;;18.80;99.90;;;;;;5095121;28;20031;-72
2021/06/24 10:45:02;;;;;;;7.20;2.22;;;18.70;99.90;;;;;;5096512;28;20031;-72
2021/06/24 10:47:30;;;;;;;5.55;2.28;;;18.80;99.90;;;;;;5098876;28;20039;-71
2021/06/24 10:50:32;;;;;;;4.97;2.42;;;18.80;99.90;;;;;;5094330;28;20047;-72
2021/06/24 10:53:05;;;;;;;3.22;2.40;;;18.70;99.90;;;;;;5096113;28;20441;-71
2021/06/24 10:55:31;;;;;;;4.97;2.03;;;18.80;99.90;;;;;;5108767;28;20024;-72
2021/06/24 10:58:01;;;;;;;10.00;2.80;;;18.70;99.90;;;;;;5094304;28;20024;-72
2021/06/24 11:00:46;;;;;;;2.60;2.20;;;18.70;99.90;;;;;;5094142;28;20020;-72
2021/06/24 11:03:17;;;;;;;2.72;2.30;;;18.80;99.90;;;;;;5109856;28;20427;-71
2021/06/24 11:05:48;;;;;;;5.78;2.30;;;18.80;99.90;;;;;;5104859;28;20368;-72
2021/06/24 11:08:30;;;;;;;11.02;2.63;;;19.00;99.90;;;;;;5093061;28;20023;-72
2021/06/24 11:11:04;;;;;;;2.47;2.28;;;19.30;99.90;;;;;;5099337;28;20024;-72
2021/06/24 11:13:39;;;;;;;5.13;2.47;;;19.50;99.90;;;;;;5114377;28;20103;-73
2021/06/24 11:16:15;;;;;;;5.80;2.10;;;19.70;99.90;;;;;;5103691;28;20426;-72
2021/06/24 11:18:42;;;;;;;3.35;2.38;;;19.80;99.90;;;;;;5109262;28;20124;-72
2021/06/24 11:21:20;;;;;;;4.75;2.25;;;19.90;99.90;;;;;;5104708;28;20063;-72
2021/06/24 11:23:53;;;;;;;4.70;2.40;;;19.80;99.90;;;;;;5092992;28;20031;-72
2021/06/24 11:26:28;;;;;;;3.03;2.53;;;19.70;99.90;;;;;;5095142;28;20074;-72
2021/06/24 11:29:17;;;;;;;8.48;3.40;;;19.60;99.90;;;;;;5103336;28;20090;-74
2021/06/24 11:32:00;;;;;;;6.50;2.35;;;19.50;99.90;;;;;;5110550;28;20026;-73
2021/06/24 11:34:45;;;;;;;4.13;2.50;;;19.40;99.90;;;;;;5098198;28;20028;-72
2021/06/24 11:37:14;;;;;;;5.63;2.47;;;19.50;99.90;;;;;;5102741;28;20019;-72
2021/06/24 11:39:53;;;;;;;5.50;2.90;;;19.60;99.90;;;;;;5112807;28;20031;-72
2021/06/24 11:42:25;;;;;;;10.50;3.10;;;19.60;99.90;;;;;;5094969;28;20024;-72
2021/06/24 11:44:52;;;;;;;2.63;2.42;;;19.40;99.90;;;;;;5092376;28;20032;-72
2021/06/24 11:47:27;;;;;;;5.80;2.60;;;19.40;99.90;;;;;;5104353;28;20032;-73
2021/06/24 12:03:33;;;;;;;8.88;2.92;;;19.50;99.90;;;;;;5097958;28;20097;-72
2021/06/24 12:05:59;;;;;;;6.22;3.20;;;19.40;99.90;;;;;;5084969;28;20025;-72
2021/06/24 12:08:27;;;;;;;7.03;2.85;;;19.50;99.90;;;;;;5088374;28;20035;-72
2021/06/24 12:11:06;;;;;;;;;;;19.40;99.90;;;;;;5088555;28;20107;-73
2021/06/24 12:13:33;;;;;;;5.18;3.00;;;19.40;99.90;;;;;;5071141;28;19990;-72
2021/06/24 12:16:00;;;;;;;3.80;2.83;;;19.40;99.90;;;;;;5083685;28;20089;-72
2021/06/24 12:18:37;;;;;;;6.25;3.47;;;19.60;99.90;;;;;;5076763;28;20021;-73
2021/06/24 12:21:04;;;;;;;9.85;3.03;;;19.50;99.90;;;;;;5078292;28;20017;-72
2021/06/24 12:23:30;;;;;;;2.97;2.37;;;19.50;99.90;;;;;;5071295;28;20123;-73
2021/06/24 12:25:59;;;;;;;4.63;2.83;;;19.70;99.90;;;;;;5078627;28;20334;-72
2021/06/24 12:28:25;;;;;;;5.00;2.42;;;20.10;99.90;;;;;;5072803;28;20381;-73
2021/06/24 12:30:51;;;;;;;9.65;2.97;;;20.20;99.90;;;;;;5076141;28;20412;-72
2021/06/24 12:33:18;;;;;;;4.22;3.28;;;20.20;99.90;;;;;;5085891;28;20020;-73
2021/06/24 12:35:47;;;;;;;7.68;3.30;;;20.10;99.90;;;;;;5076051;28;20021;-73
2021/06/24 12:38:16;;;;;;;6.38;3.38;;;20.00;99.90;;;;;;5086849;28;20032;-72
2021/06/24 12:40:52;;;;;;;4.95;3.10;;;19.80;99.90;;;;;;5088587;28;20055;-73
2021/06/24 12:43:20;;;;;;;8.77;4.00;;;19.70;99.90;;;;;;5090398;28;20016;-73
2021/06/24 12:45:50;;;;;;;3.88;3.42;;;19.70;99.90;;;;;;5091568;28;20086;-72
2021/06/24 12:48:27;;;;;;;3.88;3.03;;;19.80;99.90;;;;;;5085847;28;20021;-73
2021/06/24 12:50:53;;;;;;;6.15;3.45;;;19.90;99.90;;;;;;5078630;28;20055;-73
2021/06/24 12:53:28;;;;;;;6.47;3.90;;;19.90;99.90;;;;;;5076669;28;20052;-72
2021/06/24 12:55:53;;;;;;;7.70;3.67;;;19.90;99.90;;;;;;5092962;28;20484;-73
2021/06/24 12:58:22;;;;;;;6.32;3.05;;;19.90;99.90;;;;;;5074734;28;20044;-73
2021/06/24 13:00:52;;;;;;;4.75;2.88;;;20.00;99.90;;;;;;5089864;28;20046;-73
2021/06/24 13:03:38;;;;;;;6.10;2.70;;;20.00;99.90;;;;;;5086324;28;20063;-73
2021/06/24 13:06:27;;;;;;;11.38;3.28;;;20.10;99.90;;;;;;5095570;28;20163;-72
2021/06/24 13:08:54;;;;;;;4.85;3.00;;;20.30;99.90;;;;;;5088070;28;20079;-73
2021/06/24 13:11:23;;;;;;;5.22;2.90;;;20.40;99.90;;;;;;5083563;28;20032;-73
2021/06/24 13:14:00;;;;;;;3.05;2.80;;;20.50;99.90;;;;;;5075654;28;20563;-73